KTRI/TRI METAR and TAF weather

Enter ICAO airport designator
Station Type Date Time Source
KTRI METAR 2021/05/15 00:53 UTC NOAA

KTRI 150053Z 35003KT 10SM SCT100 13/05 A3024 RMK AO2 SLP228 T01280050


Station Type Date Time Source
KTRI Decoded METAR 2021/05/15 00:53 UTC NOAA

TRI-CITY REGIONAL AIRPORT, TN, United States (KTRI) 36-28N 082-24W 474M
May 14, 2021 - 08:53 PM EDT / 2021.05.15 0053 UTC
Wind: from the N (350 degrees) at 3 MPH (3 KT):0
Visibility: 10 mile(s):0
Sky conditions: partly cloudy
Temperature: 55.0 F (12.8 C)
Dew Point: 41.0 F (5.0 C)
Relative Humidity: 59%
Pressure (altimeter): 30.24 in. Hg (1024 hPa)
ob: KTRI 150053Z 35003KT 10SM SCT100 13/05 A3024 RMK AO2 SLP228 T01280050
cycle: 1

Station Type Date Time Source
KTRI TAF 2021/05/14 18:21 UTC NOAA

TAF KTRI 141720Z 1418/1518 00000KT P6SM SCT070
FM142200 00000KT P6SM SCT200

Example: see airport list